Time;durP1;ratioP1;P1;durP2;ratioP2;P2;SDS_P1;SDS_P2;PMS_P1;PMS_P2;Temp;Humidity;BMP_temperature;BMP_pressure;BME280_temperature;BME280_humidity;BME280_pressure;Samples;Min_cycle;Max_cycle;Signal;HPM_P1;HPM_P2
2023/01/28 00:01:47;;;;;;;38.42;16.73;;;;;;;;;;5032781;28;20037;-71
2023/01/28 00:04:14;;;;;;;41.10;15.77;;;;;;;;;;5032185;28;20116;-71
2023/01/28 00:06:40;;;;;;;36.45;14.38;;;;;;;;;;5030676;28;20037;-70
2023/01/28 00:09:06;;;;;;;30.85;14.73;;;;;;;;;;5031365;28;20514;-72
2023/01/28 00:11:32;;;;;;;37.35;15.27;;;;;;;;;;5031510;28;20061;-71
2023/01/28 00:13:58;;;;;;;30.02;14.00;;;;;;;;;;5031177;28;20527;-72
2023/01/28 00:16:25;;;;;;;50.40;18.42;;;;;;;;;;5029997;28;20067;-71
2023/01/28 00:18:52;;;;;;;29.55;14.43;;;;;;;;;;5031292;28;20041;-71
2023/01/28 00:21:18;;;;;;;34.40;15.98;;;;;;;;;;5031137;28;20030;-71
2023/01/28 00:23:47;;;;;;;33.35;13.38;;;;;;;;;;5031110;28;20483;-70
2023/01/28 00:26:13;;;;;;;34.50;14.57;;;;;;;;;;5031069;28;20633;-72
2023/01/28 00:28:42;;;;;;;25.33;13.27;;;;;;;;;;5031152;28;20035;-72
2023/01/28 00:31:08;;;;;;;33.17;15.00;;;;;;;;;;5029980;28;20068;-71
2023/01/28 00:33:35;;;;;;;41.55;16.60;;;;;;;;;;5030857;28;20038;-72
2023/01/28 00:36:01;;;;;;;37.53;14.18;;;;;;;;;;5030823;28;20148;-71
2023/01/28 00:38:27;;;;;;;38.65;17.67;;;;;;;;;;5030794;28;20124;-71
2023/01/28 00:40:53;;;;;;;31.63;15.45;;;;;;;;;;5024943;28;20030;-70
2023/01/28 00:43:19;;;;;;;32.40;13.43;;;;;;;;;;5028197;28;20051;-70
2023/01/28 00:45:45;;;;;;;31.08;13.90;;;;;;;;;;5029708;28;20116;-70
2023/01/28 00:48:11;;;;;;;21.33;12.30;;;;;;;;;;5030711;28;20129;-72
2023/01/28 00:50:39;;;;;;;29.63;15.38;;;;;;;;;;5030849;28;20041;-71
2023/01/28 00:53:05;;;;;;;31.58;16.60;;;;;;;;;;5030608;28;20058;-72
2023/01/28 00:55:31;;;;;;;23.25;13.32;;;;;;;;;;5030745;28;20095;-72
2023/01/28 00:57:57;;;;;;;20.63;12.52;;;;;;;;;;5029264;28;20045;-71
2023/01/28 01:00:25;;;;;;;17.08;11.25;;;;;;;;;;5030338;28;20633;-71
2023/01/28 01:02:52;;;;;;;33.42;18.33;;;;;;;;;;5017539;28;20049;-70
2023/01/28 01:05:17;;;;;;;32.17;15.32;;;;;;;;;;5030185;28;20069;-72
2023/01/28 01:07:44;;;;;;;24.55;12.68;;;;;;;;;;5030175;28;20404;-72
2023/01/28 01:10:11;;;;;;;33.97;16.35;;;;;;;;;;5030006;28;20579;-71
2023/01/28 01:12:37;;;;;;;34.28;17.15;;;;;;;;;;5012800;28;20107;-71
2023/01/28 01:15:07;;;;;;;29.25;15.55;;;;;;;;;;5045600;28;20045;-71
2023/01/28 01:17:36;;;;;;;31.60;16.15;;;;;;;;;;5028765;28;20041;-71
2023/01/28 01:20:06;;;;;;;24.88;14.35;;;;;;;;;;5029821;28;20026;-71
2023/01/28 01:22:33;;;;;;;27.27;14.68;;;;;;;;;;5028974;28;20041;-71
2023/01/28 01:25:02;;;;;;;20.90;13.98;;;;;;;;;;5028818;28;20033;-71
2023/01/28 01:27:29;;;;;;;22.30;14.07;;;;;;;;;;5028187;28;20057;-70
2023/01/28 01:29:55;;;;;;;27.25;15.48;;;;;;;;;;5029839;28;20029;-72
2023/01/28 01:32:21;;;;;;;20.77;13.18;;;;;;;;;;5030030;28;20048;-72
2023/01/28 01:34:47;;;;;;;30.52;16.13;;;;;;;;;;5028772;28;20140;-72
2023/01/28 01:37:13;;;;;;;26.70;14.23;;;;;;;;;;5029644;28;20088;-71
2023/01/28 01:39:40;;;;;;;23.38;14.30;;;;;;;;;;5030094;28;20030;-72
2023/01/28 01:42:08;;;;;;;19.95;12.57;;;;;;;;;;5030096;28;20034;-71
2023/01/28 01:44:47;;;;;;;20.88;15.93;;;;;;;;;;5012278;28;20026;-70
2023/01/28 01:47:13;;;;;;;20.88;14.77;;;;;;;;;;5029866;28;20041;-72
2023/01/28 01:49:39;;;;;;;22.48;14.82;;;;;;;;;;5028251;28;20471;-72
2023/01/28 01:52:09;;;;;;;19.85;14.43;;;;;;;;;;5028310;28;20041;-70
2023/01/28 01:54:35;;;;;;;22.80;15.63;;;;;;;;;;5028079;28;20025;-71
2023/01/28 01:57:01;;;;;;;20.90;15.57;;;;;;;;;;5029438;28;20392;-72
2023/01/28 01:59:27;;;;;;;24.65;17.38;;;;;;;;;;5027733;28;20090;-68
2023/01/28 02:01:53;;;;;;;29.48;18.40;;;;;;;;;;5028266;28;20040;-72
2023/01/28 02:04:29;;;;;;;18.10;12.63;;;;;;;;;;5029024;28;20033;-71
2023/01/28 02:06:56;;;;;;;20.15;12.07;;;;;;;;;;5029505;28;20038;-70
2023/01/28 02:09:31;;;;;;;21.02;15.68;;;;;;;;;;5029055;28;20560;-71
2023/01/28 02:12:20;;;;;;;17.27;11.80;;;;;;;;;;5028215;28;20038;-71
2023/01/28 02:14:53;;;;;;;15.23;12.13;;;;;;;;;;5016231;28;20107;-70
2023/01/28 02:17:19;;;;;;;19.50;13.88;;;;;;;;;;5027553;28;20045;-72
2023/01/28 02:19:47;;;;;;;21.80;14.00;;;;;;;;;;5028594;28;20113;-71
2023/01/28 02:22:25;;;;;;;13.25;11.27;;;;;;;;;;5011114;28;20033;-72
2023/01/28 02:25:06;;;;;;;8.95;8.18;;;;;;;;;;5027982;28;20048;-72
2023/01/28 02:27:32;;;;;;;13.20;11.85;;;;;;;;;;5016341;28;20041;-71
2023/01/28 02:30:19;;;;;;;20.52;11.70;;;;;;;;;;5011153;28;20041;-70
2023/01/28 02:32:45;;;;;;;13.75;11.60;;;;;;;;;;5027495;28;20111;-70
2023/01/28 02:35:13;;;;;;;18.10;16.20;;;;;;;;;;5010815;28;20026;-71
2023/01/28 02:37:51;;;;;;;18.65;15.85;;;;;;;;;;5011265;28;20520;-71
2023/01/28 02:40:29;;;;;;;16.75;9.63;;;;;;;;;;5043919;28;20048;-71
2023/01/28 02:42:56;;;;;;;17.95;15.27;;;;;;;;;;5044431;28;20132;-71
2023/01/28 02:47:56;;;;;;;13.35;11.73;;;;;;;;;;5027520;28;20112;-71
2023/01/28 02:48:12;;;;;;;18.77;14.45;;;;;;;;;;5028504;28;20116;-72
2023/01/28 02:50:42;;;;;;;15.18;11.80;;;;;;;;;;5029129;28;20037;-71
2023/01/28 02:56:01;;;;;;;19.77;12.25;;;;;;;;;;5022535;28;20041;-71
2023/01/28 02:58:45;;;;;;;22.77;11.48;;;;;;;;;;5010897;28;20439;-71
2023/01/28 03:01:41;;;;;;;20.75;13.77;;;;;;;;;;5027082;28;20038;-71
2023/01/28 03:04:14;;;;;;;19.67;13.60;;;;;;;;;;5015572;28;20076;-72
2023/01/28 03:06:42;;;;;;;17.00;10.95;;;;;;;;;;5020774;28;20038;-72
2023/01/28 03:09:26;;;;;;;15.80;12.82;;;;;;;;;;5023894;28;20455;-71
2023/01/28 03:36:50;;;;;;;13.60;10.23;;;;;;;;;;5045650;28;20111;-71
2023/01/28 03:39:36;;;;;;;12.93;10.75;;;;;;;;;;5024229;28;20539;-72
2023/01/28 03:42:04;;;;;;;17.85;13.15;;;;;;;;;;5030825;28;20518;-71
2023/01/28 03:47:14;;;;;;;12.45;10.13;;;;;;;;;;5031817;28;20132;-69
2023/01/28 03:49:41;;;;;;;13.65;11.95;;;;;;;;;;5030533;28;20422;-71
2023/01/28 03:52:07;;;;;;;23.38;14.13;;;;;;;;;;5030458;28;20512;-68
2023/01/28 03:54:33;;;;;;;17.95;15.23;;;;;;;;;;5031311;28;20030;-72
2023/01/28 03:57:00;;;;;;;14.15;9.55;;;;;;;;;;5030268;28;20500;-71
2023/01/28 03:59:26;;;;;;;11.43;9.70;;;;;;;;;;5046416;28;20084;-71
2023/01/28 04:01:52;;;;;;;14.55;10.93;;;;;;;;;;5030384;28;20049;-71
2023/01/28 04:04:23;;;;;;;11.02;9.07;;;;;;;;;;5029779;28;20036;-71
2023/01/28 04:06:52;;;;;;;17.35;14.52;;;;;;;;;;5063727;28;20140;-71
2023/01/28 04:09:19;;;;;;;19.58;13.65;;;;;;;;;;5029795;28;20029;-71
2023/01/28 04:12:02;;;;;;;17.52;15.63;;;;;;;;;;5015823;28;20488;-70
2023/01/28 04:14:41;;;;;;;11.32;9.45;;;;;;;;;;5029940;28;20581;-71
2023/01/28 04:17:12;;;;;;;11.85;8.50;;;;;;;;;;5045783;28;20498;-69
2023/01/28 04:19:39;;;;;;;10.18;8.73;;;;;;;;;;5044800;28;20033;-80
2023/01/28 04:22:06;;;;;;;15.52;10.57;;;;;;;;;;4994870;28;20034;-80
2023/01/28 04:24:34;;;;;;;12.68;10.00;;;;;;;;;;5046782;28;20029;-79
2023/01/28 04:27:00;;;;;;;8.02;7.18;;;;;;;;;;5030422;28;20055;-78
2023/01/28 04:29:26;;;;;;;12.88;10.63;;;;;;;;;;5013565;28;20049;-78
2023/01/28 04:31:55;;;;;;;9.93;8.10;;;;;;;;;;5046919;28;20103;-80
2023/01/28 04:34:33;;;;;;;8.45;7.18;;;;;;;;;;5030335;28;20040;-80
2023/01/28 04:37:09;;;;;;;12.30;10.40;;;;;;;;;;5017389;28;20463;-80
2023/01/28 04:40:01;;;;;;;10.77;9.68;;;;;;;;;;5032886;28;20119;-81
2023/01/28 04:43:00;;;;;;;12.32;10.25;;;;;;;;;;5023663;28;20047;-81
2023/01/28 04:45:49;;;;;;;10.27;9.27;;;;;;;;;;5024352;28;20111;-80
2023/01/28 04:48:24;;;;;;;11.05;9.88;;;;;;;;;;5032035;28;20144;-81
2023/01/28 04:51:09;;;;;;;10.57;8.60;;;;;;;;;;5031089;28;20033;-79
2023/01/28 04:53:54;;;;;;;13.82;12.38;;;;;;;;;;5046729;28;20063;-78
2023/01/28 04:56:26;;;;;;;9.07;8.18;;;;;;;;;;5029417;28;20507;-79
2023/01/28 04:58:52;;;;;;;13.68;11.60;;;;;;;;;;5046882;28;20424;-80
2023/01/28 05:01:18;;;;;;;15.75;11.85;;;;;;;;;;5033578;28;20035;-82
2023/01/28 05:03:44;;;;;;;7.75;7.05;;;;;;;;;;5033019;28;20182;-81
2023/01/28 05:06:17;;;;;;;16.17;13.75;;;;;;;;;;5018278;28;20638;-78
2023/01/28 05:08:45;;;;;;;15.30;12.45;;;;;;;;;;5029742;28;20041;-80
2023/01/28 05:11:12;;;;;;;12.10;10.02;;;;;;;;;;5029639;28;20040;-79
2023/01/28 05:13:39;;;;;;;20.33;14.23;;;;;;;;;;5029378;28;20477;-80
2023/01/28 05:16:07;;;;;;;13.45;10.85;;;;;;;;;;5030013;28;20461;-81
2023/01/28 05:18:32;;;;;;;17.27;12.43;;;;;;;;;;5014162;28;20037;-81
2023/01/28 05:21:10;;;;;;;15.60;12.45;;;;;;;;;;4998740;28;20076;-81
2023/01/28 05:23:38;;;;;;;11.90;10.57;;;;;;;;;;5033467;28;20033;-81
2023/01/28 05:26:04;;;;;;;13.35;11.82;;;;;;;;;;5034444;28;20037;-81
2023/01/28 05:28:30;;;;;;;18.63;14.82;;;;;;;;;;5034894;28;20099;-80
2023/01/28 05:31:01;;;;;;;11.70;10.55;;;;;;;;;;5038959;28;20118;-84
2023/01/28 05:33:27;;;;;;;17.40;13.57;;;;;;;;;;5035444;28;20052;-83
2023/01/28 05:35:53;;;;;;;17.42;14.57;;;;;;;;;;5032254;28;20045;-82
2023/01/28 05:38:21;;;;;;;14.48;11.55;;;;;;;;;;5035884;28;20422;-80
2023/01/28 05:40:47;;;;;;;9.60;8.60;;;;;;;;;;4993659;28;20026;-79
2023/01/28 05:43:13;;;;;;;22.45;17.35;;;;;;;;;;5029424;28;20067;-80
2023/01/28 05:46:03;;;;;;;21.27;17.73;;;;;;;;;;5022740;28;20132;-79
2023/01/28 05:48:49;;;;;;;16.60;14.20;;;;;;;;;;5029897;28;20559;-78
2023/01/28 05:51:30;;;;;;;18.92;15.00;;;;;;;;;;5028358;28;20033;-80
2023/01/28 05:53:57;;;;;;;14.40;12.90;;;;;;;;;;5029376;28;20546;-79
2023/01/28 05:56:23;;;;;;;15.18;12.13;;;;;;;;;;5029874;28;20037;-79
2023/01/28 05:58:49;;;;;;;15.10;13.55;;;;;;;;;;5030287;28;20033;-71
2023/01/28 06:01:16;;;;;;;19.30;17.35;;;;;;;;;;5028770;28;20139;-72
2023/01/28 06:03:48;;;;;;;12.65;11.13;;;;;;;;;;5014514;28;20128;-71
2023/01/28 06:06:14;;;;;;;16.13;12.60;;;;;;;;;;5012141;28;20116;-72
2023/01/28 06:08:41;;;;;;;18.90;17.00;;;;;;;;;;5038240;28;20045;-73
2023/01/28 06:11:07;;;;;;;16.00;14.02;;;;;;;;;;5011442;28;20415;-72
2023/01/28 06:13:34;;;;;;;16.55;14.75;;;;;;;;;;5017695;28;20037;-72
2023/01/28 06:16:13;;;;;;;20.60;18.45;;;;;;;;;;5026316;28;20569;-72
2023/01/28 06:18:51;;;;;;;15.98;14.38;;;;;;;;;;5028185;28;20048;-72
2023/01/28 06:21:17;;;;;;;14.85;12.52;;;;;;;;;;5029181;28;20111;-72
2023/01/28 06:23:43;;;;;;;19.40;17.15;;;;;;;;;;5009842;28;20037;-72
2023/01/28 06:26:09;;;;;;;14.52;12.73;;;;;;;;;;5021271;28;20038;-72
2023/01/28 06:28:38;;;;;;;15.00;10.88;;;;;;;;;;5017018;28;20030;-71
2023/01/28 06:31:05;;;;;;;17.45;15.55;;;;;;;;;;5018503;28;20084;-71
2023/01/28 06:33:31;;;;;;;11.93;10.70;;;;;;;;;;5020755;28;20036;-72
2023/01/28 06:35:57;;;;;;;15.95;12.45;;;;;;;;;;5019454;28;20049;-70
2023/01/28 06:38:23;;;;;;;17.40;15.60;;;;;;;;;;5013987;28;20161;-72
2023/01/28 06:40:54;;;;;;;15.07;13.00;;;;;;;;;;5021256;28;20029;-72
2023/01/28 06:43:26;;;;;;;13.45;12.18;;;;;;;;;;5025085;28;20033;-72
2023/01/28 06:45:55;;;;;;;13.77;11.65;;;;;;;;;;5024833;28;20623;-72
2023/01/28 06:48:21;;;;;;;17.65;13.88;;;;;;;;;;5027284;28;20196;-73
2023/01/28 06:50:47;;;;;;;17.67;15.93;;;;;;;;;;5035299;28;20048;-72
2023/01/28 06:53:14;;;;;;;22.67;19.80;;;;;;;;;;5026939;28;20033;-72
2023/01/28 06:55:40;;;;;;;18.67;16.60;;;;;;;;;;5018635;28;20079;-72
2023/01/28 06:58:06;;;;;;;15.88;12.65;;;;;;;;;;5018734;28;20042;-72
2023/01/28 07:00:32;;;;;;;21.58;16.95;;;;;;;;;;5028033;28;20125;-72
2023/01/28 07:02:58;;;;;;;22.92;18.70;;;;;;;;;;5030919;28;20033;-72
2023/01/28 07:05:25;;;;;;;17.60;14.30;;;;;;;;;;5030887;28;20124;-72
2023/01/28 07:07:51;;;;;;;26.85;18.35;;;;;;;;;;5039766;28;20033;-72
2023/01/28 07:10:17;;;;;;;22.55;16.40;;;;;;;;;;5040816;28;20578;-72
2023/01/28 07:12:43;;;;;;;20.77;15.77;;;;;;;;;;5039082;28;20030;-74
2023/01/28 07:15:13;;;;;;;25.65;19.42;;;;;;;;;;5039119;28;20095;-72
2023/01/28 07:17:40;;;;;;;19.20;14.13;;;;;;;;;;5039050;28;20052;-72
2023/01/28 07:20:06;;;;;;;22.40;13.07;;;;;;;;;;5035669;28;20029;-72
2023/01/28 07:22:32;;;;;;;16.85;13.63;;;;;;;;;;5032527;28;20128;-72
2023/01/28 07:25:00;;;;;;;21.63;17.15;;;;;;;;;;5032162;28;20083;-73
2023/01/28 07:27:26;;;;;;;22.88;17.65;;;;;;;;;;5032422;28;20045;-72
2023/01/28 07:29:52;;;;;;;24.85;17.52;;;;;;;;;;5020395;28;20080;-73
2023/01/28 07:32:17;;;;;;;26.52;20.70;;;;;;;;;;5028317;28;20045;-72
2023/01/28 07:34:43;;;;;;;18.33;12.85;;;;;;;;;;5027742;28;20037;-72
2023/01/28 07:37:10;;;;;;;22.25;19.83;;;;;;;;;;5013997;28;20060;-72
2023/01/28 07:39:36;;;;;;;19.75;16.58;;;;;;;;;;5030157;28;20571;-72
2023/01/28 07:42:02;;;;;;;19.20;12.68;;;;;;;;;;5031830;28;20415;-71
2023/01/28 07:44:36;;;;;;;17.60;15.75;;;;;;;;;;5037947;28;20566;-71
2023/01/28 07:47:02;;;;;;;18.45;13.20;;;;;;;;;;5030766;28;20037;-72
2023/01/28 07:49:28;;;;;;;19.13;17.20;;;;;;;;;;5029464;28;20056;-72
2023/01/28 07:51:54;;;;;;;24.90;17.63;;;;;;;;;;5023668;28;20034;-72
2023/01/28 07:54:20;;;;;;;17.67;14.45;;;;;;;;;;5024139;28;20029;-73
2023/01/28 07:56:46;;;;;;;19.55;14.77;;;;;;;;;;5029603;28;20531;-72
2023/01/28 07:59:12;;;;;;;18.10;16.23;;;;;;;;;;5022071;28;20603;-72
2023/01/28 08:01:38;;;;;;;20.30;16.42;;;;;;;;;;5027311;28;20499;-73
2023/01/28 08:04:04;;;;;;;25.00;19.73;;;;;;;;;;5027850;28;20029;-73
2023/01/28 08:06:30;;;;;;;22.40;13.63;;;;;;;;;;5024127;28;20029;-72
2023/01/28 08:08:56;;;;;;;21.77;16.45;;;;;;;;;;5026167;28;20108;-73
2023/01/28 08:11:22;;;;;;;17.63;14.68;;;;;;;;;;5030363;28;20508;-72
2023/01/28 08:13:48;;;;;;;23.83;18.25;;;;;;;;;;5030924;28;20544;-73
2023/01/28 08:16:14;;;;;;;21.38;14.68;;;;;;;;;;5026842;28;20037;-73
2023/01/28 08:18:40;;;;;;;18.27;15.20;;;;;;;;;;5018537;28;20116;-72
2023/01/28 08:21:06;;;;;;;16.88;12.45;;;;;;;;;;5023070;28;20120;-71
2023/01/28 08:23:35;;;;;;;16.65;13.05;;;;;;;;;;5021780;28;20046;-71
2023/01/28 08:26:01;;;;;;;16.13;14.15;;;;;;;;;;5017677;28;20148;-72
2023/01/28 08:28:27;;;;;;;17.92;14.02;;;;;;;;;;5021836;28;20091;-72
2023/01/28 08:30:53;;;;;;;13.95;10.73;;;;;;;;;;5021410;28;20084;-69
2023/01/28 08:33:19;;;;;;;18.27;12.93;;;;;;;;;;5021233;28;20046;-72
2023/01/28 08:35:45;;;;;;;14.15;10.73;;;;;;;;;;5019026;28;20429;-71
2023/01/28 08:38:12;;;;;;;14.63;12.65;;;;;;;;;;5019227;28;20045;-72
2023/01/28 08:40:37;;;;;;;17.85;13.23;;;;;;;;;;5022768;28;20029;-72
2023/01/28 08:43:04;;;;;;;20.65;16.33;;;;;;;;;;5020399;28;20040;-72
2023/01/28 08:45:30;;;;;;;13.55;12.23;;;;;;;;;;4984954;28;20030;-71
2023/01/28 08:47:57;;;;;;;10.50;8.43;;;;;;;;;;5019883;28;20033;-72
2023/01/28 08:50:24;;;;;;;13.23;11.48;;;;;;;;;;5017163;28;20157;-71
2023/01/28 08:52:57;;;;;;;15.23;12.73;;;;;;;;;;5020739;28;20480;-71
2023/01/28 08:55:23;;;;;;;15.23;11.60;;;;;;;;;;5018407;28;20047;-72
2023/01/28 08:57:49;;;;;;;18.75;13.63;;;;;;;;;;5017463;28;20506;-71
2023/01/28 09:00:15;;;;;;;20.52;15.32;;;;;;;;;;5034149;28;20026;-72
2023/01/28 09:02:42;;;;;;;15.05;10.32;;;;;;;;;;5015446;28;20041;-72
2023/01/28 09:05:08;;;;;;;11.98;9.90;;;;;;;;;;5018149;28;20025;-72
2023/01/28 09:07:34;;;;;;;11.80;10.07;;;;;;;;;;5019459;28;20038;-71
2023/01/28 09:10:00;;;;;;;13.52;11.15;;;;;;;;;;5018919;28;20030;-71
2023/01/28 09:12:26;;;;;;;16.25;14.23;;;;;;;;;;5019211;28;20048;-73
2023/01/28 09:14:52;;;;;;;23.95;15.02;;;;;;;;;;5019591;28;20034;-75
2023/01/28 09:17:19;;;;;;;19.73;12.95;;;;;;;;;;5017087;28;20037;-75
2023/01/28 09:19:44;;;;;;;28.60;18.27;;;;;;;;;;5021409;28;20018;-75
2023/01/28 09:22:10;;;;;;;20.30;14.73;;;;;;;;;;5023208;28;20040;-74
2023/01/28 09:24:36;;;;;;;15.48;12.55;;;;;;;;;;5019601;28;20029;-72
2023/01/28 09:27:02;;;;;;;11.23;8.18;;;;;;;;;;5021569;28;20179;-72
2023/01/28 09:29:28;;;;;;;9.40;8.50;;;;;;;;;;5015205;28;20702;-73
2023/01/28 09:31:54;;;;;;;9.35;8.38;;;;;;;;;;5018118;28;20530;-72
2023/01/28 09:34:21;;;;;;;8.55;7.68;;;;;;;;;;5030838;28;20033;-71
2023/01/28 09:36:47;;;;;;;9.18;8.25;;;;;;;;;;5023232;28;20053;-71
2023/01/28 09:39:13;;;;;;;11.10;8.95;;;;;;;;;;5020654;28;20081;-72
2023/01/28 09:41:42;;;;;;;11.50;8.32;;;;;;;;;;5019113;28;20136;-71
2023/01/28 09:44:20;;;;;;;9.43;8.38;;;;;;;;;;5019007;28;20037;-71
2023/01/28 09:46:46;;;;;;;10.30;9.40;;;;;;;;;;5012150;28;20033;-70
2023/01/28 09:49:24;;;;;;;10.60;7.75;;;;;;;;;;5019380;28;20034;-72
2023/01/28 09:51:51;;;;;;;10.15;9.05;;;;;;;;;;5020071;28;20084;-73
2023/01/28 09:54:17;;;;;;;10.65;9.63;;;;;;;;;;5019507;28;20113;-72
2023/01/28 09:56:45;;;;;;;6.55;5.95;;;;;;;;;;5022706;28;20137;-77
2023/01/28 09:59:18;;;;;;;9.75;8.75;;;;;;;;;;5020081;28;20523;-77
2023/01/28 10:01:46;;;;;;;9.05;8.15;;;;;;;;;;5022182;28;20515;-80
2023/01/28 10:04:11;;;;;;;10.13;9.20;;;;;;;;;;5015502;28;20033;-79
2023/01/28 10:06:44;;;;;;;11.80;10.02;;;;;;;;;;5028851;28;20036;-80
2023/01/28 10:09:10;;;;;;;10.77;9.65;;;;;;;;;;5025265;28;20021;-80
2023/01/28 10:11:39;;;;;;;8.95;8.10;;;;;;;;;;5023947;28;20435;-76
2023/01/28 10:14:11;;;;;;;9.95;9.05;;;;;;;;;;5024737;28;20040;-81
2023/01/28 10:16:41;;;;;;;13.35;10.40;;;;;;;;;;5039325;28;20231;-80
2023/01/28 10:19:12;;;;;;;13.45;11.40;;;;;;;;;;5021322;28;20032;-80
2023/01/28 10:21:39;;;;;;;12.77;10.38;;;;;;;;;;5016255;28;20053;-80
2023/01/28 10:24:09;;;;;;;10.70;9.60;;;;;;;;;;5004743;28;20522;-80
2023/01/28 10:26:36;;;;;;;13.30;11.52;;;;;;;;;;5024795;28;20029;-83
2023/01/28 10:29:03;;;;;;;12.35;10.43;;;;;;;;;;5030157;28;20041;-81
2023/01/28 10:31:34;;;;;;;6.50;5.88;;;;;;;;;;5026784;28;20116;-82
2023/01/28 10:34:01;;;;;;;15.43;11.45;;;;;;;;;;5027429;28;20597;-82
2023/01/28 10:36:28;;;;;;;8.07;7.18;;;;;;;;;;5022488;28;20056;-78
2023/01/28 10:38:54;;;;;;;26.10;14.65;;;;;;;;;;5006028;28;20096;-77
2023/01/28 10:41:20;;;;;;;15.00;11.15;;;;;;;;;;5031521;28;20029;-78
2023/01/28 10:43:46;;;;;;;11.07;9.05;;;;;;;;;;5027117;28;20038;-79
2023/01/28 10:46:15;;;;;;;9.23;8.32;;;;;;;;;;5004500;28;20128;-77
2023/01/28 10:48:43;;;;;;;13.38;9.32;;;;;;;;;;5004776;28;20546;-77
2023/01/28 10:51:09;;;;;;;9.45;8.40;;;;;;;;;;5005063;28;20029;-78
2023/01/28 10:53:38;;;;;;;13.10;9.45;;;;;;;;;;5006071;28;20058;-78
2023/01/28 10:56:04;;;;;;;5.20;4.78;;;;;;;;;;5008947;28;20100;-77
2023/01/28 10:58:31;;;;;;;8.57;7.65;;;;;;;;;;5006368;28;20038;-78
2023/01/28 11:00:58;;;;;;;15.70;9.00;;;;;;;;;;5006235;28;20137;-77
2023/01/28 11:03:28;;;;;;;10.02;8.32;;;;;;;;;;5022062;28;20127;-78
2023/01/28 11:05:54;;;;;;;7.95;7.15;;;;;;;;;;5027998;28;20030;-79
2023/01/28 11:08:20;;;;;;;15.52;10.27;;;;;;;;;;5028247;28;20041;-78
2023/01/28 11:10:47;;;;;;;13.18;8.13;;;;;;;;;;5008374;28;20132;-78
2023/01/28 11:13:17;;;;;;;16.90;8.30;;;;;;;;;;5027128;28;20039;-77
2023/01/28 11:15:54;;;;;;;8.35;7.05;;;;;;;;;;5026684;28;20041;-77
2023/01/28 11:18:24;;;;;;;8.85;7.95;;;;;;;;;;5027608;28;20038;-79
2023/01/28 11:20:51;;;;;;;11.10;8.57;;;;;;;;;;5029420;28;20041;-78
2023/01/28 11:23:26;;;;;;;5.50;4.43;;;;;;;;;;5028254;28;20033;-78
2023/01/28 11:26:00;;;;;;;7.93;7.05;;;;;;;;;;5018115;28;20487;-78
2023/01/28 11:28:26;;;;;;;8.95;7.57;;;;;;;;;;5028964;28;20071;-78
2023/01/28 11:30:52;;;;;;;8.30;7.50;;;;;;;;;;5030541;28;20045;-77
2023/01/28 11:33:20;;;;;;;11.85;8.02;;;;;;;;;;5008168;28;20120;-78
2023/01/28 11:35:53;;;;;;;8.18;7.35;;;;;;;;;;5024344;28;20097;-78
2023/01/28 11:38:20;;;;;;;17.05;11.98;;;;;;;;;;5029205;28;20125;-78
2023/01/28 11:40:52;;;;;;;9.48;6.72;;;;;;;;;;5028288;28;20030;-78
2023/01/28 11:43:25;;;;;;;7.10;6.40;;;;;;;;;;5012605;28;20029;-78
2023/01/28 11:45:54;;;;;;;7.80;6.32;;;;;;;;;;5028405;28;20566;-78
2023/01/28 11:48:20;;;;;;;9.77;7.43;;;;;;;;;;5028489;28;20132;-78
2023/01/28 11:50:49;;;;;;;11.77;8.60;;;;;;;;;;5027191;28;20041;-78
2023/01/28 11:53:21;;;;;;;11.70;10.00;;;;;;;;;;5029450;28;20052;-79
2023/01/28 11:56:06;;;;;;;7.10;6.38;;;;;;;;;;5031009;28;20132;-79
2023/01/28 11:58:54;;;;;;;11.93;7.90;;;;;;;;;;5030034;28;20073;-78
2023/01/28 12:01:26;;;;;;;11.18;7.85;;;;;;;;;;5031067;28;20034;-78
2023/01/28 12:03:55;;;;;;;9.35;8.18;;;;;;;;;;5032151;28;20044;-78
2023/01/28 12:06:34;;;;;;;6.90;6.05;;;;;;;;;;5047656;28;20053;-78
2023/01/28 12:09:07;;;;;;;7.35;5.63;;;;;;;;;;5031697;28;20107;-79
2023/01/28 12:14:17;;;;;;;10.40;8.05;;;;;;;;;;5030689;28;20040;-77
2023/01/28 12:17:02;;;;;;;9.25;7.25;;;;;;;;;;5030337;28;20052;-78
2023/01/28 12:19:45;;;;;;;9.15;8.25;;;;;;;;;;5020211;28;20060;-78
2023/01/28 12:22:18;;;;;;;11.30;8.32;;;;;;;;;;5047051;28;20095;-79
2023/01/28 12:24:44;;;;;;;7.53;6.70;;;;;;;;;;5028946;28;20612;-78
2023/01/28 12:27:25;;;;;;;9.00;8.15;;;;;;;;;;5030496;28;20041;-78
2023/01/28 12:29:51;;;;;;;;;;;;;;;;;;5032172;28;20490;-79
2023/01/28 12:32:30;;;;;;;12.00;9.07;;;;;;;;;;5031779;28;20402;-77
2023/01/28 12:34:56;;;;;;;11.30;9.80;;;;;;;;;;5031601;28;20072;-79
2023/01/28 12:37:26;;;;;;;12.35;10.13;;;;;;;;;;5029969;28;20088;-78
2023/01/28 12:39:58;;;;;;;11.73;8.05;;;;;;;;;;5030247;28;20037;-78
2023/01/28 12:42:31;;;;;;;11.82;9.27;;;;;;;;;;5031044;28;20124;-78
2023/01/28 12:45:17;;;;;;;11.18;8.55;;;;;;;;;;5031559;28;20528;-77
2023/01/28 12:47:48;;;;;;;9.25;7.85;;;;;;;;;;5031168;28;20088;-78
2023/01/28 12:50:24;;;;;;;11.95;8.35;;;;;;;;;;5030463;28;20048;-78
2023/01/28 12:52:54;;;;;;;9.13;7.63;;;;;;;;;;5029895;28;20044;-78
2023/01/28 12:55:40;;;;;;;14.40;10.25;;;;;;;;;;5013771;28;20075;-78
2023/01/28 12:58:06;;;;;;;12.50;8.70;;;;;;;;;;5028159;28;20120;-78
2023/01/28 13:00:33;;;;;;;12.65;8.43;;;;;;;;;;5031368;28;20412;-79
2023/01/28 13:03:18;;;;;;;11.52;8.80;;;;;;;;;;5029274;28;20026;-78
2023/01/28 13:06:20;;;;;;;10.93;9.57;;;;;;;;;;5028841;28;20033;-78
2023/01/28 13:08:45;;;;;;;;;;;;;;;;;;4989355;28;20035;-79
2023/01/28 13:11:13;;;;;;;10.45;8.30;;;;;;;;;;5022392;28;19935;-78
2023/01/28 13:13:43;;;;;;;11.00;8.10;;;;;;;;;;5030835;28;20043;-79
2023/01/28 13:16:09;;;;;;;9.00;7.97;;;;;;;;;;5029573;28;20069;-79
2023/01/28 13:18:38;;;;;;;10.45;8.27;;;;;;;;;;5029442;28;20041;-78
2023/01/28 13:21:04;;;;;;;12.55;9.10;;;;;;;;;;5031258;28;20516;-78
2023/01/28 13:23:46;;;;;;;11.90;10.15;;;;;;;;;;5035036;28;20128;-78
2023/01/28 13:26:18;;;;;;;12.38;8.55;;;;;;;;;;5032712;28;20120;-77
2023/01/28 13:28:44;;;;;;;9.60;8.13;;;;;;;;;;5031998;28;20029;-77
2023/01/28 13:31:16;;;;;;;15.15;8.63;;;;;;;;;;5021558;28;20045;-78
2023/01/28 13:33:45;;;;;;;9.73;7.75;;;;;;;;;;5009552;28;20127;-78
2023/01/28 13:36:11;;;;;;;15.32;10.43;;;;;;;;;;5025998;28;20065;-78
2023/01/28 13:38:37;;;;;;;11.60;8.82;;;;;;;;;;5027180;28;20042;-77
2023/01/28 13:41:05;;;;;;;13.60;11.25;;;;;;;;;;5024595;28;20025;-78
2023/01/28 13:43:37;;;;;;;9.63;8.63;;;;;;;;;;5028911;28;20125;-78
2023/01/28 13:46:10;;;;;;;11.27;8.70;;;;;;;;;;5027266;28;20064;-79
2023/01/28 13:48:41;;;;;;;10.45;7.55;;;;;;;;;;5034042;28;20095;-79
2023/01/28 13:51:20;;;;;;;10.32;7.53;;;;;;;;;;5030461;28;20034;-77
2023/01/28 13:53:48;;;;;;;13.27;10.23;;;;;;;;;;5026596;28;20466;-79
2023/01/28 13:56:17;;;;;;;16.10;8.73;;;;;;;;;;5025770;28;20489;-79
2023/01/28 13:58:46;;;;;;;9.77;8.77;;;;;;;;;;5037550;28;20064;-78
2023/01/28 14:01:22;;;;;;;9.43;8.40;;;;;;;;;;5037128;28;20048;-79
2023/01/28 14:03:51;;;;;;;13.07;9.15;;;;;;;;;;5039669;28;20043;-79
2023/01/28 14:06:40;;;;;;;10.05;8.98;;;;;;;;;;5049699;28;20033;-78
2023/01/28 14:09:25;;;;;;;15.88;9.07;;;;;;;;;;5048710;28;20041;-79
2023/01/28 14:12:10;;;;;;;14.45;10.45;;;;;;;;;;5049624;28;20042;-79
2023/01/28 14:14:39;;;;;;;12.52;9.40;;;;;;;;;;5050758;28;20033;-78
2023/01/28 14:17:11;;;;;;;13.70;10.20;;;;;;;;;;5062832;28;20072;-77
2023/01/28 14:19:37;;;;;;;11.43;9.13;;;;;;;;;;5039160;28;20103;-78
2023/01/28 14:22:06;;;;;;;11.40;8.25;;;;;;;;;;5059869;28;20034;-77
2023/01/28 14:24:32;;;;;;;13.45;8.23;;;;;;;;;;5046564;28;20048;-78
2023/01/28 14:26:58;;;;;;;10.70;8.48;;;;;;;;;;5050427;28;20017;-77
2023/01/28 14:29:26;;;;;;;11.30;8.50;;;;;;;;;;5046173;28;20112;-80
2023/01/28 14:31:52;;;;;;;16.73;10.82;;;;;;;;;;5053454;28;20032;-76
2023/01/28 14:34:34;;;;;;;24.55;14.48;;;;;;;;;;5035387;28;20029;-78
2023/01/28 14:36:59;;;;;;;;;;;;;;;;;;5025412;28;20073;-74
2023/01/28 14:39:26;;;;;;;13.48;9.05;;;;;;;;;;5023545;28;20014;-74
2023/01/28 14:41:53;;;;;;;9.88;7.95;;;;;;;;;;5019518;28;20044;-76
2023/01/28 14:44:21;;;;;;;11.63;8.27;;;;;;;;;;5022507;28;20040;-80
2023/01/28 14:47:00;;;;;;;11.75;9.18;;;;;;;;;;5012332;28;20112;-79
2023/01/28 14:49:31;;;;;;;11.48;8.32;;;;;;;;;;5032538;28;20103;-78
2023/01/28 14:52:03;;;;;;;13.07;9.30;;;;;;;;;;5041194;28;20482;-79
2023/01/28 14:54:38;;;;;;;14.27;9.80;;;;;;;;;;5030708;28;20508;-79
2023/01/28 14:57:07;;;;;;;11.20;9.70;;;;;;;;;;5031987;28;20045;-78
2023/01/28 14:59:49;;;;;;;12.63;9.68;;;;;;;;;;5032940;28;20041;-78
2023/01/28 15:02:19;;;;;;;11.88;9.35;;;;;;;;;;5022636;28;20148;-78
2023/01/28 15:04:45;;;;;;;14.82;11.32;;;;;;;;;;5029915;28;20056;-79
2023/01/28 15:07:29;;;;;;;13.85;11.48;;;;;;;;;;5032154;28;20029;-78
2023/01/28 15:10:02;;;;;;;12.95;9.00;;;;;;;;;;5026255;28;20370;-78
2023/01/28 15:12:29;;;;;;;12.70;10.65;;;;;;;;;;5029229;28;20033;-78